sensor_id;sensor_type;location;lat;lon;timestamp;P1;durP1;ratioP1;P2;durP2;ratioP2
3891;SDS011;1961;48.194;16.370;2023-04-24T00:00:31;44.60;;;9.10;;
3891;SDS011;1961;48.194;16.370;2023-04-24T00:02:57;45.30;;;8.57;;
3891;SDS011;1961;48.194;16.370;2023-04-24T00:05:23;43.87;;;8.20;;
3891;SDS011;1961;48.194;16.370;2023-04-24T00:07:49;54.47;;;9.00;;
3891;SDS011;1961;48.194;16.370;2023-04-24T00:10:19;45.20;;;8.97;;
3891;SDS011;1961;48.194;16.370;2023-04-24T00:12:45;44.37;;;8.50;;
3891;SDS011;1961;48.194;16.370;2023-04-24T00:15:11;45.30;;;8.30;;
3891;SDS011;1961;48.194;16.370;2023-04-24T00:17:38;45.90;;;8.60;;
3891;SDS011;1961;48.194;16.370;2023-04-24T00:20:04;45.07;;;8.33;;
3891;SDS011;1961;48.194;16.370;2023-04-24T00:22:32;45.10;;;8.60;;
3891;SDS011;1961;48.194;16.370;2023-04-24T00:25:01;44.50;;;8.27;;
3891;SDS011;1961;48.194;16.370;2023-04-24T00:27:27;44.10;;;8.47;;
3891;SDS011;1961;48.194;16.370;2023-04-24T00:29:53;48.17;;;8.80;;
3891;SDS011;1961;48.194;16.370;2023-04-24T00:32:19;44.40;;;9.30;;
3891;SDS011;1961;48.194;16.370;2023-04-24T00:35:01;45.73;;;8.73;;
3891;SDS011;1961;48.194;16.370;2023-04-24T00:37:27;45.90;;;9.80;;
3891;SDS011;1961;48.194;16.370;2023-04-24T00:39:53;49.70;;;10.37;;
3891;SDS011;1961;48.194;16.370;2023-04-24T00:42:20;45.50;;;9.10;;
3891;SDS011;1961;48.194;16.370;2023-04-24T00:44:46;44.17;;;9.17;;
3891;SDS011;1961;48.194;16.370;2023-04-24T00:47:13;44.60;;;8.60;;
3891;SDS011;1961;48.194;16.370;2023-04-24T00:49:40;44.80;;;9.30;;
3891;SDS011;1961;48.194;16.370;2023-04-24T00:54:53;46.20;;;9.10;;
3891;SDS011;1961;48.194;16.370;2023-04-24T00:57:22;46.00;;;8.70;;
3891;SDS011;1961;48.194;16.370;2023-04-24T00:59:53;44.40;;;9.30;;
3891;SDS011;1961;48.194;16.370;2023-04-24T01:02:20;47.87;;;8.90;;
3891;SDS011;1961;48.194;16.370;2023-04-24T01:04:48;44.47;;;9.20;;
3891;SDS011;1961;48.194;16.370;2023-04-24T01:07:17;44.63;;;8.70;;
3891;SDS011;1961;48.194;16.370;2023-04-24T01:09:47;68.97;;;12.73;;
3891;SDS011;1961;48.194;16.370;2023-04-24T01:12:16;46.73;;;8.90;;
3891;SDS011;1961;48.194;16.370;2023-04-24T01:14:45;46.73;;;9.80;;
3891;SDS011;1961;48.194;16.370;2023-04-24T01:17:11;46.07;;;9.73;;
3891;SDS011;1961;48.194;16.370;2023-04-24T01:19:38;46.13;;;9.17;;
3891;SDS011;1961;48.194;16.370;2023-04-24T01:22:12;46.77;;;9.27;;
3891;SDS011;1961;48.194;16.370;2023-04-24T01:24:39;48.50;;;11.23;;
3891;SDS011;1961;48.194;16.370;2023-04-24T01:27:05;46.77;;;10.00;;
3891;SDS011;1961;48.194;16.370;2023-04-24T01:29:32;44.50;;;9.13;;
3891;SDS011;1961;48.194;16.370;2023-04-24T01:31:58;44.83;;;9.30;;
3891;SDS011;1961;48.194;16.370;2023-04-24T01:34:24;46.27;;;9.57;;
3891;SDS011;1961;48.194;16.370;2023-04-24T01:36:51;45.40;;;9.77;;
3891;SDS011;1961;48.194;16.370;2023-04-24T01:39:17;47.60;;;9.00;;
3891;SDS011;1961;48.194;16.370;2023-04-24T01:41:45;50.93;;;10.40;;
3891;SDS011;1961;48.194;16.370;2023-04-24T01:44:12;48.10;;;10.73;;
3891;SDS011;1961;48.194;16.370;2023-04-24T01:46:38;48.40;;;9.63;;
3891;SDS011;1961;48.194;16.370;2023-04-24T01:49:05;50.00;;;10.20;;
3891;SDS011;1961;48.194;16.370;2023-04-24T01:51:31;46.17;;;10.80;;
3891;SDS011;1961;48.194;16.370;2023-04-24T01:53:57;46.07;;;10.03;;
3891;SDS011;1961;48.194;16.370;2023-04-24T01:56:24;47.00;;;9.97;;
3891;SDS011;1961;48.194;16.370;2023-04-24T01:58:50;45.77;;;9.57;;
3891;SDS011;1961;48.194;16.370;2023-04-24T02:01:18;45.27;;;9.87;;
3891;SDS011;1961;48.194;16.370;2023-04-24T02:03:45;45.90;;;9.50;;
3891;SDS011;1961;48.194;16.370;2023-04-24T02:06:11;46.70;;;9.30;;
3891;SDS011;1961;48.194;16.370;2023-04-24T02:08:37;45.47;;;9.23;;
3891;SDS011;1961;48.194;16.370;2023-04-24T02:11:04;44.23;;;8.80;;
3891;SDS011;1961;48.194;16.370;2023-04-24T02:13:31;45.37;;;8.27;;
3891;SDS011;1961;48.194;16.370;2023-04-24T02:16:00;45.97;;;8.40;;
3891;SDS011;1961;48.194;16.370;2023-04-24T02:18:27;44.27;;;8.20;;
3891;SDS011;1961;48.194;16.370;2023-04-24T02:20:53;45.77;;;8.30;;
3891;SDS011;1961;48.194;16.370;2023-04-24T02:23:20;44.60;;;8.07;;
3891;SDS011;1961;48.194;16.370;2023-04-24T02:25:46;43.93;;;7.20;;
3891;SDS011;1961;48.194;16.370;2023-04-24T02:28:12;44.63;;;7.20;;
3891;SDS011;1961;48.194;16.370;2023-04-24T02:30:38;45.00;;;7.53;;
3891;SDS011;1961;48.194;16.370;2023-04-24T02:33:04;42.87;;;6.80;;
3891;SDS011;1961;48.194;16.370;2023-04-24T02:35:31;42.97;;;6.50;;
3891;SDS011;1961;48.194;16.370;2023-04-24T02:37:57;43.40;;;7.10;;
3891;SDS011;1961;48.194;16.370;2023-04-24T02:40:23;44.70;;;7.60;;
3891;SDS011;1961;48.194;16.370;2023-04-24T02:42:49;44.93;;;7.37;;
3891;SDS011;1961;48.194;16.370;2023-04-24T02:45:15;43.50;;;7.20;;
3891;SDS011;1961;48.194;16.370;2023-04-24T02:47:42;43.00;;;6.83;;
3891;SDS011;1961;48.194;16.370;2023-04-24T02:50:08;43.93;;;7.60;;
3891;SDS011;1961;48.194;16.370;2023-04-24T02:52:34;43.73;;;6.90;;
3891;SDS011;1961;48.194;16.370;2023-04-24T02:55:00;43.90;;;7.30;;
3891;SDS011;1961;48.194;16.370;2023-04-24T02:57:27;42.47;;;6.63;;
3891;SDS011;1961;48.194;16.370;2023-04-24T02:59:53;43.10;;;6.93;;
3891;SDS011;1961;48.194;16.370;2023-04-24T03:02:19;42.90;;;6.90;;
3891;SDS011;1961;48.194;16.370;2023-04-24T03:04:46;42.40;;;6.43;;
3891;SDS011;1961;48.194;16.370;2023-04-24T03:07:15;45.47;;;6.90;;
3891;SDS011;1961;48.194;16.370;2023-04-24T03:09:41;45.30;;;6.67;;
3891;SDS011;1961;48.194;16.370;2023-04-24T03:12:08;44.07;;;7.67;;
3891;SDS011;1961;48.194;16.370;2023-04-24T03:14:34;42.03;;;6.87;;
3891;SDS011;1961;48.194;16.370;2023-04-24T03:17:00;44.30;;;7.57;;
3891;SDS011;1961;48.194;16.370;2023-04-24T03:19:27;43.37;;;7.03;;
3891;SDS011;1961;48.194;16.370;2023-04-24T03:21:53;43.93;;;7.00;;
3891;SDS011;1961;48.194;16.370;2023-04-24T03:24:19;43.70;;;6.63;;
3891;SDS011;1961;48.194;16.370;2023-04-24T03:26:46;42.80;;;6.70;;
3891;SDS011;1961;48.194;16.370;2023-04-24T03:29:12;45.13;;;6.40;;
3891;SDS011;1961;48.194;16.370;2023-04-24T03:31:38;42.47;;;6.53;;
3891;SDS011;1961;48.194;16.370;2023-04-24T03:34:05;44.47;;;6.63;;
3891;SDS011;1961;48.194;16.370;2023-04-24T03:36:31;45.97;;;7.20;;
3891;SDS011;1961;48.194;16.370;2023-04-24T03:38:57;43.43;;;7.27;;
3891;SDS011;1961;48.194;16.370;2023-04-24T03:41:23;42.13;;;6.60;;
3891;SDS011;1961;48.194;16.370;2023-04-24T03:43:49;43.13;;;7.00;;
3891;SDS011;1961;48.194;16.370;2023-04-24T03:46:15;43.10;;;7.00;;
3891;SDS011;1961;48.194;16.370;2023-04-24T03:48:42;42.90;;;6.57;;
3891;SDS011;1961;48.194;16.370;2023-04-24T03:51:08;43.17;;;6.67;;
3891;SDS011;1961;48.194;16.370;2023-04-24T03:53:35;44.83;;;7.33;;
3891;SDS011;1961;48.194;16.370;2023-04-24T03:56:01;42.97;;;6.90;;
3891;SDS011;1961;48.194;16.370;2023-04-24T03:58:27;42.50;;;6.43;;
3891;SDS011;1961;48.194;16.370;2023-04-24T04:00:53;42.70;;;6.73;;
3891;SDS011;1961;48.194;16.370;2023-04-24T04:03:21;43.70;;;7.10;;
3891;SDS011;1961;48.194;16.370;2023-04-24T04:05:47;43.27;;;7.30;;
3891;SDS011;1961;48.194;16.370;2023-04-24T04:08:13;43.50;;;6.63;;
3891;SDS011;1961;48.194;16.370;2023-04-24T04:10:40;42.90;;;7.03;;
3891;SDS011;1961;48.194;16.370;2023-04-24T04:13:06;43.90;;;6.97;;
3891;SDS011;1961;48.194;16.370;2023-04-24T04:15:32;42.27;;;6.30;;
3891;SDS011;1961;48.194;16.370;2023-04-24T04:17:59;43.87;;;7.70;;
3891;SDS011;1961;48.194;16.370;2023-04-24T04:20:25;44.00;;;6.60;;
3891;SDS011;1961;48.194;16.370;2023-04-24T04:22:51;42.23;;;6.63;;
3891;SDS011;1961;48.194;16.370;2023-04-24T04:25:19;44.00;;;7.10;;
3891;SDS011;1961;48.194;16.370;2023-04-24T04:27:46;42.50;;;6.17;;
3891;SDS011;1961;48.194;16.370;2023-04-24T04:30:16;42.27;;;6.40;;
3891;SDS011;1961;48.194;16.370;2023-04-24T04:32:43;43.97;;;7.30;;
3891;SDS011;1961;48.194;16.370;2023-04-24T04:35:09;42.40;;;6.30;;
3891;SDS011;1961;48.194;16.370;2023-04-24T04:37:36;44.13;;;6.27;;
3891;SDS011;1961;48.194;16.370;2023-04-24T04:40:03;43.70;;;6.53;;
3891;SDS011;1961;48.194;16.370;2023-04-24T04:42:36;42.20;;;6.10;;
3891;SDS011;1961;48.194;16.370;2023-04-24T04:45:06;45.13;;;6.50;;
3891;SDS011;1961;48.194;16.370;2023-04-24T04:47:34;43.07;;;6.20;;
3891;SDS011;1961;48.194;16.370;2023-04-24T04:50:00;42.00;;;5.90;;
3891;SDS011;1961;48.194;16.370;2023-04-24T04:52:30;42.93;;;6.57;;
3891;SDS011;1961;48.194;16.370;2023-04-24T04:54:57;44.97;;;6.30;;
3891;SDS011;1961;48.194;16.370;2023-04-24T04:57:23;42.87;;;6.30;;
3891;SDS011;1961;48.194;16.370;2023-04-24T04:59:52;41.67;;;5.70;;
3891;SDS011;1961;48.194;16.370;2023-04-24T05:02:18;47.97;;;6.77;;
3891;SDS011;1961;48.194;16.370;2023-04-24T05:04:44;45.97;;;7.10;;
3891;SDS011;1961;48.194;16.370;2023-04-24T05:07:11;42.67;;;6.13;;
3891;SDS011;1961;48.194;16.370;2023-04-24T05:09:37;46.73;;;6.13;;
3891;SDS011;1961;48.194;16.370;2023-04-24T05:12:03;45.13;;;6.60;;
3891;SDS011;1961;48.194;16.370;2023-04-24T05:14:33;43.57;;;6.50;;
3891;SDS011;1961;48.194;16.370;2023-04-24T05:16:59;44.13;;;5.53;;
3891;SDS011;1961;48.194;16.370;2023-04-24T05:19:29;41.67;;;5.70;;
3891;SDS011;1961;48.194;16.370;2023-04-24T05:21:57;44.77;;;6.40;;
3891;SDS011;1961;48.194;16.370;2023-04-24T05:24:24;42.23;;;5.90;;
3891;SDS011;1961;48.194;16.370;2023-04-24T05:26:50;45.60;;;6.67;;
3891;SDS011;1961;48.194;16.370;2023-04-24T05:29:16;42.70;;;6.37;;
3891;SDS011;1961;48.194;16.370;2023-04-24T05:31:44;45.17;;;7.47;;
3891;SDS011;1961;48.194;16.370;2023-04-24T05:34:10;42.10;;;5.90;;
3891;SDS011;1961;48.194;16.370;2023-04-24T05:36:36;44.33;;;6.60;;
3891;SDS011;1961;48.194;16.370;2023-04-24T05:39:03;42.90;;;6.40;;
3891;SDS011;1961;48.194;16.370;2023-04-24T05:41:30;45.37;;;6.43;;
3891;SDS011;1961;48.194;16.370;2023-04-24T05:43:56;42.70;;;6.00;;
3891;SDS011;1961;48.194;16.370;2023-04-24T05:46:24;43.17;;;6.30;;
3891;SDS011;1961;48.194;16.370;2023-04-24T05:48:50;42.40;;;6.07;;
3891;SDS011;1961;48.194;16.370;2023-04-24T05:51:16;43.40;;;6.03;;
3891;SDS011;1961;48.194;16.370;2023-04-24T05:53:42;43.07;;;5.90;;
3891;SDS011;1961;48.194;16.370;2023-04-24T05:56:09;42.83;;;6.00;;
3891;SDS011;1961;48.194;16.370;2023-04-24T05:58:35;43.50;;;6.30;;
3891;SDS011;1961;48.194;16.370;2023-04-24T06:01:02;44.90;;;6.03;;
3891;SDS011;1961;48.194;16.370;2023-04-24T06:03:28;43.00;;;5.90;;
3891;SDS011;1961;48.194;16.370;2023-04-24T06:05:54;42.80;;;6.30;;
3891;SDS011;1961;48.194;16.370;2023-04-24T06:08:20;42.30;;;6.47;;
3891;SDS011;1961;48.194;16.370;2023-04-24T06:10:47;42.73;;;5.70;;
3891;SDS011;1961;48.194;16.370;2023-04-24T06:13:13;42.40;;;6.80;;
3891;SDS011;1961;48.194;16.370;2023-04-24T06:15:39;44.80;;;6.60;;
3891;SDS011;1961;48.194;16.370;2023-04-24T06:18:06;48.83;;;5.90;;
3891;SDS011;1961;48.194;16.370;2023-04-24T06:20:32;42.87;;;6.30;;
3891;SDS011;1961;48.194;16.370;2023-04-24T06:22:59;41.97;;;5.43;;
3891;SDS011;1961;48.194;16.370;2023-04-24T06:25:25;41.97;;;5.53;;
3891;SDS011;1961;48.194;16.370;2023-04-24T06:27:52;42.47;;;6.10;;
3891;SDS011;1961;48.194;16.370;2023-04-24T06:30:18;43.57;;;6.43;;
3891;SDS011;1961;48.194;16.370;2023-04-24T06:32:44;42.70;;;6.60;;
3891;SDS011;1961;48.194;16.370;2023-04-24T06:35:11;43.40;;;6.97;;
3891;SDS011;1961;48.194;16.370;2023-04-24T06:37:41;41.60;;;5.73;;
3891;SDS011;1961;48.194;16.370;2023-04-24T06:40:07;42.23;;;6.20;;
3891;SDS011;1961;48.194;16.370;2023-04-24T06:42:34;43.20;;;6.30;;
3891;SDS011;1961;48.194;16.370;2023-04-24T06:45:01;42.27;;;5.80;;
3891;SDS011;1961;48.194;16.370;2023-04-24T06:47:27;42.40;;;5.60;;
3891;SDS011;1961;48.194;16.370;2023-04-24T06:49:53;42.33;;;6.13;;
3891;SDS011;1961;48.194;16.370;2023-04-24T06:52:20;43.17;;;5.70;;
3891;SDS011;1961;48.194;16.370;2023-04-24T06:54:46;43.70;;;6.00;;
3891;SDS011;1961;48.194;16.370;2023-04-24T06:57:12;48.03;;;6.60;;
3891;SDS011;1961;48.194;16.370;2023-04-24T06:59:41;42.30;;;5.93;;
3891;SDS011;1961;48.194;16.370;2023-04-24T07:02:08;42.30;;;6.00;;
3891;SDS011;1961;48.194;16.370;2023-04-24T07:04:37;43.30;;;5.47;;
3891;SDS011;1961;48.194;16.370;2023-04-24T07:07:03;41.77;;;5.70;;
3891;SDS011;1961;48.194;16.370;2023-04-24T07:09:35;42.87;;;5.97;;
3891;SDS011;1961;48.194;16.370;2023-04-24T07:12:07;48.63;;;6.20;;
3891;SDS011;1961;48.194;16.370;2023-04-24T07:14:33;41.50;;;5.43;;
3891;SDS011;1961;48.194;16.370;2023-04-24T07:17:00;42.47;;;5.30;;
3891;SDS011;1961;48.194;16.370;2023-04-24T07:19:26;43.63;;;5.90;;
3891;SDS011;1961;48.194;16.370;2023-04-24T07:21:52;41.17;;;5.17;;
3891;SDS011;1961;48.194;16.370;2023-04-24T07:24:20;42.30;;;5.80;;
3891;SDS011;1961;48.194;16.370;2023-04-24T07:26:46;40.90;;;5.00;;
3891;SDS011;1961;48.194;16.370;2023-04-24T07:29:13;42.70;;;5.07;;
3891;SDS011;1961;48.194;16.370;2023-04-24T07:31:39;42.60;;;4.90;;
3891;SDS011;1961;48.194;16.370;2023-04-24T07:34:06;49.30;;;10.97;;
3891;SDS011;1961;48.194;16.370;2023-04-24T07:36:32;40.83;;;5.10;;
3891;SDS011;1961;48.194;16.370;2023-04-24T07:38:58;41.80;;;4.80;;
3891;SDS011;1961;48.194;16.370;2023-04-24T07:41:25;41.77;;;4.90;;
3891;SDS011;1961;48.194;16.370;2023-04-24T07:43:52;41.50;;;5.30;;
3891;SDS011;1961;48.194;16.370;2023-04-24T07:46:19;43.50;;;5.40;;
3891;SDS011;1961;48.194;16.370;2023-04-24T07:48:46;42.30;;;5.47;;
3891;SDS011;1961;48.194;16.370;2023-04-24T07:51:14;41.87;;;5.50;;
3891;SDS011;1961;48.194;16.370;2023-04-24T07:53:41;43.60;;;5.00;;
3891;SDS011;1961;48.194;16.370;2023-04-24T07:56:07;41.83;;;5.20;;
3891;SDS011;1961;48.194;16.370;2023-04-24T07:58:34;41.70;;;4.90;;
3891;SDS011;1961;48.194;16.370;2023-04-24T08:01:00;44.77;;;6.50;;
3891;SDS011;1961;48.194;16.370;2023-04-24T08:03:27;42.17;;;5.30;;
3891;SDS011;1961;48.194;16.370;2023-04-24T08:05:53;41.63;;;5.57;;
3891;SDS011;1961;48.194;16.370;2023-04-24T08:08:20;40.53;;;4.97;;
3891;SDS011;1961;48.194;16.370;2023-04-24T08:10:47;43.10;;;5.40;;
3891;SDS011;1961;48.194;16.370;2023-04-24T08:13:13;40.80;;;5.17;;
3891;SDS011;1961;48.194;16.370;2023-04-24T08:15:39;41.50;;;5.33;;
3891;SDS011;1961;48.194;16.370;2023-04-24T08:18:05;43.30;;;5.77;;
3891;SDS011;1961;48.194;16.370;2023-04-24T08:20:32;42.10;;;5.50;;
3891;SDS011;1961;48.194;16.370;2023-04-24T08:22:58;41.13;;;5.20;;
3891;SDS011;1961;48.194;16.370;2023-04-24T08:25:24;42.23;;;5.70;;
3891;SDS011;1961;48.194;16.370;2023-04-24T08:27:51;43.90;;;5.50;;
3891;SDS011;1961;48.194;16.370;2023-04-24T08:30:17;41.87;;;5.50;;
3891;SDS011;1961;48.194;16.370;2023-04-24T08:32:44;41.90;;;5.40;;
3891;SDS011;1961;48.194;16.370;2023-04-24T08:35:10;42.47;;;5.53;;
3891;SDS011;1961;48.194;16.370;2023-04-24T08:37:36;40.97;;;5.10;;
3891;SDS011;1961;48.194;16.370;2023-04-24T08:40:06;42.00;;;4.87;;
3891;SDS011;1961;48.194;16.370;2023-04-24T08:42:36;41.80;;;5.00;;
3891;SDS011;1961;48.194;16.370;2023-04-24T08:45:03;40.90;;;5.40;;
3891;SDS011;1961;48.194;16.370;2023-04-24T08:47:30;40.20;;;4.80;;
3891;SDS011;1961;48.194;16.370;2023-04-24T08:49:57;44.00;;;4.63;;
3891;SDS011;1961;48.194;16.370;2023-04-24T08:52:27;41.70;;;4.80;;
3891;SDS011;1961;48.194;16.370;2023-04-24T08:54:54;40.67;;;4.80;;
3891;SDS011;1961;48.194;16.370;2023-04-24T08:57:21;42.00;;;4.80;;
3891;SDS011;1961;48.194;16.370;2023-04-24T08:59:47;40.50;;;4.00;;
3891;SDS011;1961;48.194;16.370;2023-04-24T09:02:13;39.97;;;4.30;;
3891;SDS011;1961;48.194;16.370;2023-04-24T09:04:40;40.40;;;4.30;;
3891;SDS011;1961;48.194;16.370;2023-04-24T09:07:06;40.47;;;4.50;;
3891;SDS011;1961;48.194;16.370;2023-04-24T09:09:34;40.23;;;4.20;;
3891;SDS011;1961;48.194;16.370;2023-04-24T09:12:01;40.60;;;4.03;;
3891;SDS011;1961;48.194;16.370;2023-04-24T09:14:28;41.40;;;4.80;;
3891;SDS011;1961;48.194;16.370;2023-04-24T09:16:57;40.20;;;3.90;;
3891;SDS011;1961;48.194;16.370;2023-04-24T09:19:23;40.10;;;3.93;;
3891;SDS011;1961;48.194;16.370;2023-04-24T09:21:49;40.70;;;3.90;;
3891;SDS011;1961;48.194;16.370;2023-04-24T09:24:20;39.90;;;3.97;;
3891;SDS011;1961;48.194;16.370;2023-04-24T09:26:55;39.93;;;3.87;;
3891;SDS011;1961;48.194;16.370;2023-04-24T09:29:24;42.73;;;10.53;;
3891;SDS011;1961;48.194;16.370;2023-04-24T09:31:50;40.47;;;3.90;;
3891;SDS011;1961;48.194;16.370;2023-04-24T09:34:23;39.50;;;3.63;;
3891;SDS011;1961;48.194;16.370;2023-04-24T09:36:50;39.90;;;4.07;;
3891;SDS011;1961;48.194;16.370;2023-04-24T09:39:17;41.63;;;5.43;;
3891;SDS011;1961;48.194;16.370;2023-04-24T09:41:49;41.00;;;4.80;;
3891;SDS011;1961;48.194;16.370;2023-04-24T09:44:20;41.17;;;4.87;;
3891;SDS011;1961;48.194;16.370;2023-04-24T09:46:50;40.97;;;4.40;;
3891;SDS011;1961;48.194;16.370;2023-04-24T09:49:22;40.30;;;3.60;;
3891;SDS011;1961;48.194;16.370;2023-04-24T09:51:49;41.27;;;4.03;;
3891;SDS011;1961;48.194;16.370;2023-04-24T09:54:20;41.77;;;4.23;;
3891;SDS011;1961;48.194;16.370;2023-04-24T09:56:47;40.30;;;4.33;;
3891;SDS011;1961;48.194;16.370;2023-04-24T09:59:14;40.50;;;4.20;;
3891;SDS011;1961;48.194;16.370;2023-04-24T10:01:41;40.50;;;4.00;;
3891;SDS011;1961;48.194;16.370;2023-04-24T10:04:19;39.40;;;3.90;;
3891;SDS011;1961;48.194;16.370;2023-04-24T10:06:46;40.47;;;4.10;;
3891;SDS011;1961;48.194;16.370;2023-04-24T10:09:14;39.80;;;3.60;;
3891;SDS011;1961;48.194;16.370;2023-04-24T10:11:44;40.57;;;4.03;;
3891;SDS011;1961;48.194;16.370;2023-04-24T10:14:15;39.97;;;3.90;;
3891;SDS011;1961;48.194;16.370;2023-04-24T10:16:41;39.87;;;4.00;;
3891;SDS011;1961;48.194;16.370;2023-04-24T10:19:08;40.87;;;4.70;;
3891;SDS011;1961;48.194;16.370;2023-04-24T10:21:34;48.60;;;4.83;;
3891;SDS011;1961;48.194;16.370;2023-04-24T10:24:04;39.93;;;4.00;;
3891;SDS011;1961;48.194;16.370;2023-04-24T10:26:32;40.07;;;4.40;;
3891;SDS011;1961;48.194;16.370;2023-04-24T10:28:58;39.70;;;4.20;;
3891;SDS011;1961;48.194;16.370;2023-04-24T10:31:25;44.83;;;4.17;;
3891;SDS011;1961;48.194;16.370;2023-04-24T10:33:51;39.83;;;4.13;;
3891;SDS011;1961;48.194;16.370;2023-04-24T10:36:18;39.90;;;4.13;;
3891;SDS011;1961;48.194;16.370;2023-04-24T10:38:48;40.13;;;4.00;;
3891;SDS011;1961;48.194;16.370;2023-04-24T10:41:16;40.67;;;3.67;;
3891;SDS011;1961;48.194;16.370;2023-04-24T10:44:12;44.50;;;4.13;;
3891;SDS011;1961;48.194;16.370;2023-04-24T10:46:37;42.90;;;4.10;;
3891;SDS011;1961;48.194;16.370;2023-04-24T10:49:04;39.87;;;4.60;;
3891;SDS011;1961;48.194;16.370;2023-04-24T10:51:52;41.67;;;4.60;;
3891;SDS011;1961;48.194;16.370;2023-04-24T10:54:25;39.90;;;4.23;;
3891;SDS011;1961;48.194;16.370;2023-04-24T10:56:51;42.72;;;4.13;;
3891;SDS011;1961;48.194;16.370;2023-04-24T10:59:25;40.87;;;4.93;;
3891;SDS011;1961;48.194;16.370;2023-04-24T11:01:54;40.80;;;4.43;;
3891;SDS011;1961;48.194;16.370;2023-04-24T11:04:30;41.20;;;4.10;;
3891;SDS011;1961;48.194;16.370;2023-04-24T11:06:57;42.23;;;4.57;;
3891;SDS011;1961;48.194;16.370;2023-04-24T11:09:25;41.40;;;4.77;;
3891;SDS011;1961;48.194;16.370;2023-04-24T11:11:53;40.73;;;5.27;;
3891;SDS011;1961;48.194;16.370;2023-04-24T11:14:28;41.10;;;4.93;;
3891;SDS011;1961;48.194;16.370;2023-04-24T11:16:54;44.27;;;5.43;;
3891;SDS011;1961;48.194;16.370;2023-04-24T11:19:24;40.20;;;4.43;;
3891;SDS011;1961;48.194;16.370;2023-04-24T11:21:54;39.87;;;4.20;;
3891;SDS011;1961;48.194;16.370;2023-04-24T11:24:22;40.60;;;4.10;;
3891;SDS011;1961;48.194;16.370;2023-04-24T11:26:50;40.10;;;4.30;;
3891;SDS011;1961;48.194;16.370;2023-04-24T11:29:17;40.37;;;4.50;;
3891;SDS011;1961;48.194;16.370;2023-04-24T11:31:45;40.60;;;4.60;;
3891;SDS011;1961;48.194;16.370;2023-04-24T11:34:16;40.50;;;4.23;;
3891;SDS011;1961;48.194;16.370;2023-04-24T11:36:43;40.73;;;4.30;;
3891;SDS011;1961;48.194;16.370;2023-04-24T11:39:10;41.13;;;4.43;;
3891;SDS011;1961;48.194;16.370;2023-04-24T11:41:36;40.70;;;4.40;;
3891;SDS011;1961;48.194;16.370;2023-04-24T11:44:03;41.47;;;4.50;;
3891;SDS011;1961;48.194;16.370;2023-04-24T11:46:31;41.00;;;4.37;;
3891;SDS011;1961;48.194;16.370;2023-04-24T11:48:57;40.63;;;4.53;;
3891;SDS011;1961;48.194;16.370;2023-04-24T11:51:25;41.33;;;4.60;;
3891;SDS011;1961;48.194;16.370;2023-04-24T11:53:51;41.00;;;4.60;;
3891;SDS011;1961;48.194;16.370;2023-04-24T11:56:18;41.73;;;4.90;;
3891;SDS011;1961;48.194;16.370;2023-04-24T11:58:44;41.33;;;5.00;;
3891;SDS011;1961;48.194;16.370;2023-04-24T12:01:12;41.07;;;5.00;;
3891;SDS011;1961;48.194;16.370;2023-04-24T12:03:38;41.40;;;4.50;;
3891;SDS011;1961;48.194;16.370;2023-04-24T12:06:08;41.90;;;4.70;;
3891;SDS011;1961;48.194;16.370;2023-04-24T12:08:35;40.87;;;4.90;;
3891;SDS011;1961;48.194;16.370;2023-04-24T12:11:01;41.80;;;5.00;;
3891;SDS011;1961;48.194;16.370;2023-04-24T12:13:28;40.47;;;4.70;;
3891;SDS011;1961;48.194;16.370;2023-04-24T12:15:54;45.97;;;8.43;;
3891;SDS011;1961;48.194;16.370;2023-04-24T12:18:24;43.20;;;5.63;;
3891;SDS011;1961;48.194;16.370;2023-04-24T12:20:50;49.90;;;14.00;;
3891;SDS011;1961;48.194;16.370;2023-04-24T12:23:16;42.47;;;6.03;;
3891;SDS011;1961;48.194;16.370;2023-04-24T12:25:44;40.57;;;4.90;;
3891;SDS011;1961;48.194;16.370;2023-04-24T12:28:11;40.30;;;4.53;;
3891;SDS011;1961;48.194;16.370;2023-04-24T12:30:41;40.47;;;4.83;;
3891;SDS011;1961;48.194;16.370;2023-04-24T12:33:10;46.67;;;7.80;;
3891;SDS011;1961;48.194;16.370;2023-04-24T12:35:36;42.27;;;4.70;;
3891;SDS011;1961;48.194;16.370;2023-04-24T12:38:08;42.30;;;6.73;;
3891;SDS011;1961;48.194;16.370;2023-04-24T12:40:34;41.07;;;4.70;;
3891;SDS011;1961;48.194;16.370;2023-04-24T12:43:00;40.77;;;4.97;;
3891;SDS011;1961;48.194;16.370;2023-04-24T12:45:27;40.87;;;4.90;;
3891;SDS011;1961;48.194;16.370;2023-04-24T12:47:54;40.60;;;4.83;;
3891;SDS011;1961;48.194;16.370;2023-04-24T12:50:20;41.87;;;4.60;;
3891;SDS011;1961;48.194;16.370;2023-04-24T12:52:47;41.47;;;4.87;;
3891;SDS011;1961;48.194;16.370;2023-04-24T12:55:13;42.43;;;5.60;;
3891;SDS011;1961;48.194;16.370;2023-04-24T12:57:39;41.77;;;5.47;;
3891;SDS011;1961;48.194;16.370;2023-04-24T13:00:06;42.23;;;5.27;;
3891;SDS011;1961;48.194;16.370;2023-04-24T13:02:33;40.93;;;5.07;;
3891;SDS011;1961;48.194;16.370;2023-04-24T13:04:59;41.90;;;4.93;;
3891;SDS011;1961;48.194;16.370;2023-04-24T13:07:26;40.60;;;5.20;;
3891;SDS011;1961;48.194;16.370;2023-04-24T13:09:52;41.60;;;5.30;;
3891;SDS011;1961;48.194;16.370;2023-04-24T13:12:19;42.43;;;5.20;;
3891;SDS011;1961;48.194;16.370;2023-04-24T13:14:45;41.20;;;5.50;;
3891;SDS011;1961;48.194;16.370;2023-04-24T13:17:12;41.20;;;5.00;;
3891;SDS011;1961;48.194;16.370;2023-04-24T13:19:40;40.87;;;5.27;;
3891;SDS011;1961;48.194;16.370;2023-04-24T13:22:09;42.53;;;6.00;;
3891;SDS011;1961;48.194;16.370;2023-04-24T13:24:36;42.17;;;5.80;;
3891;SDS011;1961;48.194;16.370;2023-04-24T13:27:03;43.00;;;5.77;;
3891;SDS011;1961;48.194;16.370;2023-04-24T13:29:29;41.67;;;5.20;;
3891;SDS011;1961;48.194;16.370;2023-04-24T13:31:55;44.00;;;5.50;;
3891;SDS011;1961;48.194;16.370;2023-04-24T13:34:25;40.90;;;5.20;;
3891;SDS011;1961;48.194;16.370;2023-04-24T13:36:55;42.97;;;4.97;;
3891;SDS011;1961;48.194;16.370;2023-04-24T13:39:22;41.20;;;5.40;;
3891;SDS011;1961;48.194;16.370;2023-04-24T13:41:49;40.93;;;4.93;;
3891;SDS011;1961;48.194;16.370;2023-04-24T13:44:16;42.87;;;6.17;;
3891;SDS011;1961;48.194;16.370;2023-04-24T13:46:43;40.57;;;5.00;;
3891;SDS011;1961;48.194;16.370;2023-04-24T13:49:10;41.50;;;5.30;;
3891;SDS011;1961;48.194;16.370;2023-04-24T13:51:37;43.93;;;5.77;;
3891;SDS011;1961;48.194;16.370;2023-04-24T13:54:03;43.13;;;5.70;;
3891;SDS011;1961;48.194;16.370;2023-04-24T13:56:29;42.67;;;5.50;;
3891;SDS011;1961;48.194;16.370;2023-04-24T13:58:55;40.73;;;4.90;;
3891;SDS011;1961;48.194;16.370;2023-04-24T14:01:21;41.10;;;5.03;;
3891;SDS011;1961;48.194;16.370;2023-04-24T14:03:51;40.80;;;4.60;;
3891;SDS011;1961;48.194;16.370;2023-04-24T14:06:18;41.97;;;5.40;;
3891;SDS011;1961;48.194;16.370;2023-04-24T14:08:44;42.40;;;5.10;;
3891;SDS011;1961;48.194;16.370;2023-04-24T14:11:10;41.97;;;6.20;;
3891;SDS011;1961;48.194;16.370;2023-04-24T14:13:36;40.87;;;4.20;;
3891;SDS011;1961;48.194;16.370;2023-04-24T14:16:03;42.80;;;6.30;;
3891;SDS011;1961;48.194;16.370;2023-04-24T14:18:29;42.23;;;5.30;;
3891;SDS011;1961;48.194;16.370;2023-04-24T14:20:56;42.00;;;5.33;;
3891;SDS011;1961;48.194;16.370;2023-04-24T14:23:22;42.00;;;4.73;;
3891;SDS011;1961;48.194;16.370;2023-04-24T14:25:48;40.67;;;4.87;;
3891;SDS011;1961;48.194;16.370;2023-04-24T14:28:19;42.03;;;5.40;;
3891;SDS011;1961;48.194;16.370;2023-04-24T14:30:49;41.93;;;6.03;;
3891;SDS011;1961;48.194;16.370;2023-04-24T14:33:15;41.30;;;5.87;;
3891;SDS011;1961;48.194;16.370;2023-04-24T14:35:41;41.90;;;5.47;;
3891;SDS011;1961;48.194;16.370;2023-04-24T14:38:08;41.57;;;5.70;;
3891;SDS011;1961;48.194;16.370;2023-04-24T14:40:34;41.50;;;5.63;;
3891;SDS011;1961;48.194;16.370;2023-04-24T14:43:00;43.03;;;5.40;;
3891;SDS011;1961;48.194;16.370;2023-04-24T14:45:26;42.10;;;5.43;;
3891;SDS011;1961;48.194;16.370;2023-04-24T14:47:53;41.80;;;5.23;;
3891;SDS011;1961;48.194;16.370;2023-04-24T14:50:20;40.87;;;5.33;;